Time;durP1;ratioP1;P1;durP2;ratioP2;P2;SDS_P1;SDS_P2;PMS_P1;PMS_P2;Temp;Humidity;BMP_temperature;BMP_pressure;BME280_temperature;BME280_humidity;BME280_pressure;Samples;Min_cycle;Max_cycle;Signal;HPM_P1;HPM_P2
2021/03/29 00:01:34;;;;;;;5.45;2.15;;;18.50;54.40;;;;;;6214252;23;20054;-79
2021/03/29 00:04:00;;;;;;;8.15;2.03;;;18.50;54.40;;;;;;6214234;23;20004;-77
2021/03/29 00:06:26;;;;;;;4.93;1.90;;;18.40;54.40;;;;;;6214043;23;20005;-77
2021/03/29 00:08:54;;;;;;;5.50;1.55;;;18.40;54.50;;;;;;6214526;23;20001;-79
2021/03/29 00:11:22;;;;;;;4.50;1.88;;;18.40;54.50;;;;;;6212947;23;20031;-79
2021/03/29 00:13:49;;;;;;;4.70;1.95;;;18.30;54.40;;;;;;6213825;23;20004;-80
2021/03/29 00:16:17;;;;;;;4.30;2.00;;;18.40;54.40;;;;;;6214233;23;20008;-81
2021/03/29 00:18:43;;;;;;;5.88;2.13;;;18.40;54.40;;;;;;6214133;23;20000;-80
2021/03/29 00:21:09;;;;;;;4.40;1.50;;;18.30;54.30;;;;;;6214114;23;20028;-80
2021/03/29 00:23:35;;;;;;;5.53;2.00;;;18.30;54.30;;;;;;6213838;23;20005;-75
2021/03/29 00:26:05;;;;;;;3.65;1.40;;;18.30;54.30;;;;;;6214212;23;20329;-75
2021/03/29 00:28:31;;;;;;;5.20;1.80;;;18.30;54.40;;;;;;6214064;23;20008;-73
2021/03/29 00:30:57;;;;;;;5.70;2.22;;;18.30;54.40;;;;;;6213968;23;20012;-77
2021/03/29 00:33:24;;;;;;;5.07;1.75;;;18.20;54.40;;;;;;6214657;23;20079;-80
2021/03/29 00:35:51;;;;;;;5.90;2.10;;;18.20;54.40;;;;;;6213571;23;20460;-79
2021/03/29 00:38:18;;;;;;;4.72;2.10;;;18.20;54.40;;;;;;6213440;23;20066;-79
2021/03/29 00:40:51;;;;;;;5.07;1.90;;;18.20;54.40;;;;;;6213430;23;19996;-80
2021/03/29 00:43:21;;;;;;;7.63;2.13;;;18.20;54.40;;;;;;6214020;23;20001;-81
2021/03/29 00:45:48;;;;;;;5.68;2.03;;;18.10;54.40;;;;;;6213955;23;20004;-79
2021/03/29 00:48:19;;;;;;;4.85;2.08;;;18.10;54.40;;;;;;6214101;23;20024;-80
2021/03/29 00:50:52;;;;;;;7.28;2.10;;;18.10;54.40;;;;;;6213838;23;20001;-79
2021/03/29 00:53:18;;;;;;;5.15;1.60;;;18.10;54.40;;;;;;6213651;23;20009;-78
2021/03/29 00:55:47;;;;;;;5.38;2.00;;;18.10;54.40;;;;;;6213939;23;20005;-78
2021/03/29 00:58:15;;;;;;;5.55;1.33;;;18.10;54.40;;;;;;6214015;23;20011;-80
2021/03/29 01:00:52;;;;;;;5.57;1.60;;;18.10;54.40;;;;;;6213781;23;20046;-80
2021/03/29 01:03:23;;;;;;;5.05;1.50;;;18.00;54.40;;;;;;6213863;23;20066;-80
2021/03/29 01:06:06;;;;;;;5.18;1.40;;;18.00;54.40;;;;;;6213107;23;20433;-73
2021/03/29 01:08:34;;;;;;;3.85;1.60;;;18.00;54.50;;;;;;6213863;23;20005;-74
2021/03/29 01:11:08;;;;;;;5.60;1.67;;;17.90;54.40;;;;;;6213733;23;20013;-80
2021/03/29 01:13:38;;;;;;;6.18;2.42;;;17.90;54.40;;;;;;6213661;23;20008;-80
2021/03/29 01:16:06;;;;;;;8.02;2.35;;;17.90;54.40;;;;;;6213447;23;20004;-80
2021/03/29 01:18:33;;;;;;;5.30;2.15;;;17.90;54.40;;;;;;6213631;23;20001;-80
2021/03/29 01:21:34;;;;;;;4.82;1.65;;;17.90;54.50;;;;;;6213812;23;20000;-80
2021/03/29 01:24:10;;;;;;;3.40;1.58;;;17.90;54.50;;;;;;6213734;23;20035;-80
2021/03/29 01:26:43;;;;;;;4.72;1.40;;;17.90;54.50;;;;;;6213526;23;20004;-74
2021/03/29 01:29:10;;;;;;;5.63;2.03;;;17.80;54.40;;;;;;6213690;23;20389;-74
2021/03/29 01:31:37;;;;;;;7.80;2.10;;;17.80;54.40;;;;;;6213296;23;20009;-74
2021/03/29 01:34:05;;;;;;;4.88;1.60;;;17.80;54.50;;;;;;6213384;23;19996;-74
2021/03/29 01:36:31;;;;;;;4.05;1.40;;;17.80;54.50;;;;;;6213116;23;20000;-73
2021/03/29 01:38:58;;;;;;;5.22;1.92;;;17.70;54.50;;;;;;6187201;23;20016;-76
2021/03/29 01:41:24;;;;;;;6.00;1.80;;;17.70;54.50;;;;;;6213948;23;20009;-73
2021/03/29 01:43:51;;;;;;;3.80;2.00;;;17.70;54.60;;;;;;6213556;23;20008;-74
2021/03/29 01:46:17;;;;;;;5.90;2.17;;;17.70;54.60;;;;;;6213517;23;20009;-73
2021/03/29 01:48:43;;;;;;;3.63;1.45;;;17.70;54.60;;;;;;6213589;23;20380;-75
2021/03/29 01:51:10;;;;;;;4.30;1.70;;;17.70;54.60;;;;;;6213266;23;20000;-74
2021/03/29 01:53:36;;;;;;;4.53;1.60;;;17.70;54.60;;;;;;6213323;23;20011;-73
2021/03/29 01:56:02;;;;;;;5.05;1.67;;;17.70;54.60;;;;;;6213677;23;19997;-75
2021/03/29 01:58:28;;;;;;;5.03;1.55;;;17.60;54.70;;;;;;6213715;23;20127;-77
2021/03/29 02:00:57;;;;;;;6.57;2.00;;;17.60;54.80;;;;;;6212961;23;20001;-73
2021/03/29 02:03:25;;;;;;;3.58;1.75;;;17.60;54.80;;;;;;6213299;23;20448;-73
2021/03/29 02:05:52;;;;;;;5.45;1.70;;;17.60;54.80;;;;;;6213389;23;20009;-76
2021/03/29 02:08:20;;;;;;;5.07;1.80;;;17.60;54.80;;;;;;6213851;23;20063;-74
2021/03/29 02:10:47;;;;;;;6.55;1.50;;;17.60;54.70;;;;;;6215309;23;20008;-78
2021/03/29 02:13:16;;;;;;;5.05;1.35;;;17.60;54.70;;;;;;6215462;23;20433;-75
2021/03/29 02:15:44;;;;;;;4.45;1.35;;;17.60;54.70;;;;;;6215532;23;20346;-73
2021/03/29 02:18:19;;;;;;;5.60;1.63;;;17.60;54.70;;;;;;6188635;23;20138;-76
2021/03/29 02:20:46;;;;;;;4.45;1.50;;;17.50;54.70;;;;;;6215118;23;20453;-74
2021/03/29 02:23:15;;;;;;;5.32;1.85;;;17.50;54.70;;;;;;6215439;23;20001;-76
2021/03/29 02:25:41;;;;;;;5.10;1.50;;;17.50;54.80;;;;;;6215287;23;20005;-77
2021/03/29 02:28:07;;;;;;;2.40;1.10;;;17.50;54.90;;;;;;6215069;23;20054;-77
2021/03/29 02:30:37;;;;;;;5.07;1.25;;;17.40;54.90;;;;;;6214815;23;20000;-79
2021/03/29 02:33:09;;;;;;;4.30;1.75;;;17.40;54.80;;;;;;6215022;23;20036;-80
2021/03/29 02:35:36;;;;;;;7.28;1.98;;;17.40;54.80;;;;;;6214940;23;19996;-78
2021/03/29 02:38:03;;;;;;;3.45;1.20;;;17.40;54.80;;;;;;6215333;23;20473;-76
2021/03/29 02:40:29;;;;;;;4.82;1.55;;;17.40;54.90;;;;;;6215316;23;20008;-75
2021/03/29 02:42:57;;;;;;;5.13;1.40;;;17.40;54.90;;;;;;6214899;23;20009;-77
2021/03/29 02:45:25;;;;;;;3.35;1.40;;;17.40;54.90;;;;;;6214802;23;20015;-79
2021/03/29 02:47:55;;;;;;;3.08;1.20;;;17.30;55.00;;;;;;6214753;23;20015;-78
2021/03/29 02:50:25;;;;;;;5.05;1.88;;;17.30;55.00;;;;;;6215000;23;20339;-78
2021/03/29 02:52:54;;;;;;;3.15;1.00;;;17.30;55.00;;;;;;6214976;23;20310;-79
2021/03/29 02:55:20;;;;;;;4.05;1.33;;;17.30;55.10;;;;;;6214868;23;20008;-81
2021/03/29 02:57:49;;;;;;;4.90;1.50;;;17.20;55.10;;;;;;6214314;23;20012;-80
2021/03/29 03:00:18;;;;;;;4.88;1.42;;;17.20;55.20;;;;;;6187786;23;20323;-79
2021/03/29 03:02:45;;;;;;;5.13;1.38;;;17.30;55.20;;;;;;6214986;23;20083;-78
2021/03/29 03:05:13;;;;;;;4.22;1.40;;;17.30;55.20;;;;;;6214979;23;19997;-79
2021/03/29 03:07:39;;;;;;;2.95;1.58;;;17.20;55.10;;;;;;6214824;23;20032;-79
2021/03/29 03:10:10;;;;;;;5.75;1.58;;;17.30;55.10;;;;;;6214696;23;20314;-80
2021/03/29 03:12:40;;;;;;;3.45;1.30;;;17.20;55.00;;;;;;6214511;23;20086;-76
2021/03/29 03:15:10;;;;;;;2.45;1.02;;;17.30;55.00;;;;;;6214564;23;20008;-77
2021/03/29 03:17:35;;;;;;;3.65;1.40;;;17.20;55.00;;;;;;6188095;23;20008;-78
2021/03/29 03:20:05;;;;;;;4.47;1.83;;;17.20;55.00;;;;;;6214425;23;20433;-77
2021/03/29 03:22:31;;;;;;;3.95;1.23;;;17.20;55.10;;;;;;6214890;23;20004;-75
2021/03/29 03:24:56;;;;;;;5.28;1.60;;;17.20;55.10;;;;;;6214574;23;20644;-74
2021/03/29 03:27:22;;;;;;;4.85;1.20;;;17.20;55.10;;;;;;6214474;23;20434;-73
2021/03/29 03:29:48;;;;;;;3.40;1.20;;;17.20;55.10;;;;;;6214366;23;20011;-75
2021/03/29 03:32:14;;;;;;;4.40;1.30;;;17.20;55.10;;;;;;6214538;23;20066;-72
2021/03/29 03:34:41;;;;;;;4.13;1.50;;;17.20;55.10;;;;;;6214698;23;20001;-74
2021/03/29 03:37:10;;;;;;;3.17;1.38;;;17.10;55.10;;;;;;6214582;23;20008;-79
2021/03/29 03:39:37;;;;;;;2.60;1.48;;;17.10;55.10;;;;;;6214446;23;19996;-76
2021/03/29 03:42:05;;;;;;;3.97;1.10;;;17.10;55.20;;;;;;6214639;23;20035;-74
2021/03/29 03:44:31;;;;;;;3.35;1.45;;;17.10;55.30;;;;;;6214784;23;20421;-78
2021/03/29 03:46:57;;;;;;;3.90;1.42;;;17.10;55.30;;;;;;6214566;23;20001;-77
2021/03/29 03:49:24;;;;;;;3.88;1.80;;;17.00;55.30;;;;;;6214380;23;20009;-76
2021/03/29 03:51:50;;;;;;;3.00;1.30;;;17.00;55.40;;;;;;6214343;23;20087;-77
2021/03/29 03:54:19;;;;;;;5.07;1.30;;;17.00;55.50;;;;;;6214286;23;20019;-75
2021/03/29 03:56:45;;;;;;;4.47;1.27;;;17.00;55.40;;;;;;6213961;23;20463;-76
2021/03/29 03:59:12;;;;;;;3.83;1.52;;;17.00;55.40;;;;;;6214182;23;20054;-75
2021/03/29 04:02:12;;;;;;;5.50;1.73;;;17.00;55.40;;;;;;6214260;23;20054;-75
2021/03/29 04:04:38;;;;;;;3.50;1.55;;;17.00;55.40;;;;;;6188819;23;20009;-74
2021/03/29 04:07:04;;;;;;;3.55;1.80;;;17.00;55.40;;;;;;6187674;23;20023;-76
2021/03/29 04:12:16;;;;;;;3.70;1.77;;;16.90;55.60;;;;;;6168110;23;20040;-73
2021/03/29 04:14:41;;;;;;;4.40;1.48;;;16.90;55.70;;;;;;6214129;23;19996;-75
2021/03/29 04:17:07;;;;;;;2.97;1.20;;;16.90;55.70;;;;;;6214395;23;20380;-74
2021/03/29 04:19:34;;;;;;;3.97;1.25;;;16.80;55.70;;;;;;6214010;23;19997;-78
2021/03/29 04:22:00;;;;;;;5.68;1.30;;;16.80;55.70;;;;;;6214055;23;20338;-79
2021/03/29 04:24:26;;;;;;;4.53;1.50;;;16.80;55.80;;;;;;6214141;23;19997;-73
2021/03/29 04:26:52;;;;;;;4.40;1.30;;;16.80;55.80;;;;;;6214053;23;20004;-81
2021/03/29 04:29:18;;;;;;;6.47;1.60;;;16.80;55.90;;;;;;6213875;23;20345;-76
2021/03/29 04:31:43;;;;;;;5.15;1.40;;;16.80;55.80;;;;;;6213653;23;20087;-75
2021/03/29 04:34:09;;;;;;;4.68;1.67;;;16.70;55.80;;;;;;6213657;23;19997;-80
2021/03/29 04:36:35;;;;;;;3.22;1.23;;;16.80;55.90;;;;;;6214369;23;20349;-77
2021/03/29 04:39:01;;;;;;;4.43;1.30;;;16.70;55.90;;;;;;6213944;23;20004;-76
2021/03/29 04:41:26;;;;;;;3.88;1.20;;;16.80;55.80;;;;;;6213895;23;20437;-78
2021/03/29 04:43:52;;;;;;;4.32;1.45;;;16.80;55.70;;;;;;6213741;23;20020;-81
2021/03/29 04:46:17;;;;;;;2.67;1.00;;;16.80;55.70;;;;;;6213802;23;20004;-76
2021/03/29 04:48:43;;;;;;;4.15;1.58;;;16.80;55.60;;;;;;6187149;23;20337;-77
2021/03/29 04:51:09;;;;;;;3.70;1.50;;;16.80;55.70;;;;;;6214267;23;20059;-81
2021/03/29 04:53:35;;;;;;;4.32;1.92;;;16.80;55.70;;;;;;6214288;23;20005;-81
2021/03/29 04:56:00;;;;;;;3.50;1.63;;;16.80;55.70;;;;;;6213869;23;20004;-77
2021/03/29 04:58:26;;;;;;;3.85;1.30;;;16.70;56.30;;;;;;6213793;23;20000;-80
2021/03/29 05:00:51;;;;;;;4.70;1.27;;;16.70;55.70;;;;;;6212878;23;20468;-80
2021/03/29 05:03:17;;;;;;;3.33;1.52;;;16.70;55.70;;;;;;6213263;23;20031;-81
2021/03/29 05:05:43;;;;;;;3.28;1.17;;;16.70;55.70;;;;;;6214300;23;20051;-76
2021/03/29 05:08:08;;;;;;;2.30;1.30;;;16.70;55.70;;;;;;6214179;23;20029;-73
2021/03/29 05:10:39;;;;;;;3.75;1.23;;;16.70;55.70;;;;;;6213571;23;20067;-75
2021/03/29 05:13:04;;;;;;;7.15;1.70;;;16.80;55.70;;;;;;6213730;23;20463;-76
2021/03/29 05:15:30;;;;;;;4.82;1.90;;;16.70;55.70;;;;;;6213589;23;20184;-77
2021/03/29 05:17:56;;;;;;;2.63;1.20;;;16.70;55.70;;;;;;6213468;23;20012;-77
2021/03/29 05:20:21;;;;;;;4.40;1.48;;;16.70;55.70;;;;;;6213385;23;19997;-74
2021/03/29 05:22:47;;;;;;;3.40;1.48;;;16.70;55.70;;;;;;6213708;23;20009;-78
2021/03/29 05:25:13;;;;;;;4.65;1.45;;;16.70;55.70;;;;;;6213785;23;20504;-77
2021/03/29 05:27:38;;;;;;;4.95;1.60;;;16.70;55.70;;;;;;6187151;23;20015;-75
2021/03/29 05:30:05;;;;;;;2.58;1.10;;;16.70;55.70;;;;;;6213717;23;20389;-75
2021/03/29 05:32:31;;;;;;;2.90;1.15;;;16.70;55.70;;;;;;6213372;23;20063;-75
2021/03/29 05:35:00;;;;;;;5.22;2.03;;;16.70;55.70;;;;;;6213748;23;20429;-77
2021/03/29 05:37:28;;;;;;;2.65;1.20;;;16.70;55.70;;;;;;6213540;23;20055;-80
2021/03/29 05:39:55;;;;;;;3.53;1.25;;;16.70;55.70;;;;;;6213574;23;20437;-76
2021/03/29 05:42:24;;;;;;;4.35;1.20;;;16.70;55.70;;;;;;6213680;23;20059;-76
2021/03/29 05:45:09;;;;;;;5.40;1.77;;;16.70;55.70;;;;;;6188271;23;20005;-79
2021/03/29 05:47:36;;;;;;;3.90;1.27;;;16.70;55.70;;;;;;6215644;23;20365;-77
2021/03/29 05:50:11;;;;;;;4.00;1.20;;;16.70;55.70;;;;;;6215320;23;20008;-74
2021/03/29 05:52:37;;;;;;;2.83;1.10;;;16.60;55.60;;;;;;6214790;23;20345;-81
2021/03/29 05:55:05;;;;;;;4.93;1.35;;;16.60;55.60;;;;;;6214094;23;20012;-76
2021/03/29 05:57:54;;;;;;;3.20;1.10;;;16.60;55.70;;;;;;6187910;23;20005;-79
2021/03/29 06:00:32;;;;;;;4.38;1.30;;;16.60;56.30;;;;;;6215253;23;20000;-76
2021/03/29 06:03:20;;;;;;;3.47;1.30;;;16.60;55.70;;;;;;6188447;23;20087;-78
2021/03/29 06:05:46;;;;;;;4.07;1.50;;;16.60;55.80;;;;;;6215199;23;20008;-79
2021/03/29 06:08:13;;;;;;;4.40;1.60;;;16.70;55.60;;;;;;6188879;23;20028;-80
2021/03/29 06:10:39;;;;;;;2.90;1.40;;;16.80;55.60;;;;;;6215187;23;20445;-76
2021/03/29 06:13:27;;;;;;;5.65;1.52;;;17.00;55.50;;;;;;6214587;23;20083;-80
2021/03/29 06:16:10;;;;;;;3.45;1.20;;;17.20;55.30;;;;;;6214545;23;20001;-88
2021/03/29 06:18:50;;;;;;;3.80;1.17;;;17.30;55.10;;;;;;6215471;23;20075;-80
2021/03/29 06:21:15;;;;;;;3.47;1.40;;;17.60;54.90;;;;;;6215722;23;20051;-82
2021/03/29 06:23:55;;;;;;;2.67;1.13;;;17.80;54.70;;;;;;6215321;23;20005;-79
2021/03/29 06:26:24;;;;;;;4.07;1.20;;;17.90;54.60;;;;;;6215116;23;20001;-78
2021/03/29 06:28:50;;;;;;;4.50;1.13;;;18.10;54.40;;;;;;6214698;23;20011;-75
2021/03/29 06:31:36;;;;;;;5.32;1.55;;;18.10;54.60;;;;;;6189043;23;20464;-82
2021/03/29 06:34:02;;;;;;;3.47;1.13;;;18.10;55.00;;;;;;6214269;23;20004;-87
2021/03/29 06:36:35;;;;;;;3.63;1.30;;;18.10;55.00;;;;;;6215484;23;20004;-87
2021/03/29 06:39:12;;;;;;;10.45;2.60;;;18.10;55.10;;;;;;6215397;23;20001;-85
2021/03/29 06:41:39;;;;;;;11.23;2.28;;;18.20;55.80;;;;;;6215878;23;20075;-80
2021/03/29 06:44:06;;;;;;;9.18;2.03;;;18.20;56.40;;;;;;6215036;23;20308;-82
2021/03/29 06:46:33;;;;;;;9.00;2.08;;;18.30;56.50;;;;;;6215060;23;20007;-86
2021/03/29 06:49:00;;;;;;;7.80;2.08;;;18.30;56.50;;;;;;6214904;23;19997;-80
2021/03/29 06:51:31;;;;;;;8.20;2.00;;;18.30;56.70;;;;;;6214555;23;20009;-86
2021/03/29 06:53:58;;;;;;;9.27;1.95;;;18.40;57.10;;;;;;6215124;23;20001;-84
2021/03/29 06:56:35;;;;;;;7.78;2.13;;;18.40;56.80;;;;;;6214974;23;20001;-82
2021/03/29 06:59:03;;;;;;;11.63;2.13;;;18.50;56.60;;;;;;6214976;23;20453;-80
2021/03/29 07:01:37;;;;;;;6.50;1.77;;;18.50;56.50;;;;;;6214551;23;19997;-77
2021/03/29 07:04:05;;;;;;;4.93;1.65;;;18.60;56.30;;;;;;6187979;23;20053;-76
2021/03/29 07:06:33;;;;;;;6.65;1.92;;;18.60;56.00;;;;;;6215030;23;20028;-75
2021/03/29 07:09:06;;;;;;;6.50;1.80;;;18.60;55.80;;;;;;6214888;23;20000;-77
2021/03/29 07:11:34;;;;;;;8.27;2.22;;;18.60;55.70;;;;;;6187970;23;20020;-79
2021/03/29 07:14:00;;;;;;;3.88;1.48;;;18.70;55.60;;;;;;6186397;23;20001;-82
2021/03/29 07:16:27;;;;;;;8.38;1.92;;;18.70;56.10;;;;;;6214379;23;20008;-89
2021/03/29 07:19:01;;;;;;;4.82;1.40;;;18.60;55.40;;;;;;6215393;23;20435;-82
2021/03/29 07:21:33;;;;;;;5.32;1.50;;;18.70;55.40;;;;;;6214912;23;20020;-80
2021/03/29 07:24:10;;;;;;;5.97;1.92;;;18.70;55.70;;;;;;6214729;23;20071;-83
2021/03/29 07:27:10;;;;;;;56.10;42.83;;;18.60;55.00;;;;;;6215004;23;20396;-82
2021/03/29 07:29:46;;;;;;;25.02;18.20;;;18.70;55.70;;;;;;6150530;23;20005;-77
2021/03/29 07:32:36;;;;;;;21.50;12.70;;;18.60;55.30;;;;;;6214428;23;20015;-80
2021/03/29 07:35:03;;;;;;;22.67;13.73;;;18.70;55.20;;;;;;6187857;23;20001;-80
2021/03/29 07:37:41;;;;;;;17.80;11.48;;;18.70;55.30;;;;;;6214357;23;20004;-83
2021/03/29 07:40:15;;;;;;;17.48;11.07;;;18.60;55.70;;;;;;6214874;23;20008;-82
2021/03/29 07:42:41;;;;;;;14.25;9.52;;;18.60;55.20;;;;;;6214304;23;20007;-74
2021/03/29 07:45:11;;;;;;;16.40;10.15;;;18.60;55.20;;;;;;6214122;23;20397;-84
2021/03/29 07:47:49;;;;;;;16.65;8.48;;;18.60;55.10;;;;;;6214391;23;20009;-84
2021/03/29 07:50:35;;;;;;;15.07;9.02;;;18.60;55.10;;;;;;6214964;23;19997;-84
2021/03/29 07:53:04;;;;;;;12.43;8.45;;;18.50;55.00;;;;;;6193441;23;20013;-81
2021/03/29 07:55:39;;;;;;;18.45;8.45;;;18.50;55.00;;;;;;6187764;23;20004;-84
2021/03/29 07:58:06;;;;;;;13.27;8.35;;;18.50;55.00;;;;;;6214387;23;20023;-80
2021/03/29 08:00:32;;;;;;;12.15;8.05;;;18.50;55.00;;;;;;6214584;23;20008;-84
2021/03/29 08:03:18;;;;;;;12.18;7.00;;;18.50;54.90;;;;;;6214461;23;20005;-83
2021/03/29 08:05:45;;;;;;;9.40;6.25;;;18.50;54.90;;;;;;6185587;23;20445;-84
2021/03/29 08:10:56;;;;;;;9.82;6.07;;;18.40;54.80;;;;;;6214214;23;20016;-84
2021/03/29 08:13:44;;;;;;;12.27;5.88;;;18.40;54.80;;;;;;6214231;23;20010;-80
2021/03/29 08:16:10;;;;;;;9.13;5.20;;;18.40;54.80;;;;;;6214507;23;20001;-84
2021/03/29 08:19:07;;;;;;;8.73;5.13;;;18.40;54.80;;;;;;6187504;23;20015;-80
2021/03/29 08:21:50;;;;;;;;;;;18.30;54.70;;;;;;6214616;23;20011;-84
2021/03/29 08:24:33;;;;;;;12.32;5.82;;;18.30;54.70;;;;;;6187396;23;19900;-74
2021/03/29 08:27:01;;;;;;;10.27;5.15;;;18.30;54.70;;;;;;6213810;23;20460;-85
2021/03/29 08:29:30;;;;;;;10.15;4.72;;;18.30;54.70;;;;;;6213911;23;20020;-85
2021/03/29 08:32:14;;;;;;;12.15;4.75;;;18.30;54.70;;;;;;6214082;23;20048;-84
2021/03/29 08:35:00;;;;;;;9.98;4.57;;;18.20;54.60;;;;;;6214350;23;20004;-76
2021/03/29 08:37:30;;;;;;;7.15;4.05;;;18.20;54.60;;;;;;6214198;23;20008;-74
2021/03/29 08:39:58;;;;;;;7.68;3.85;;;18.20;54.60;;;;;;6214004;23;20004;-84
2021/03/29 08:42:30;;;;;;;8.10;3.45;;;18.20;54.60;;;;;;6214189;23;20006;-87
2021/03/29 08:44:57;;;;;;;6.80;3.42;;;18.20;54.70;;;;;;6214324;23;20433;-88
2021/03/29 08:47:24;;;;;;;8.90;4.43;;;18.20;54.70;;;;;;6214411;23;20016;-86
2021/03/29 08:49:56;;;;;;;8.65;4.38;;;18.20;54.60;;;;;;6216141;23;20445;-87
2021/03/29 08:52:23;;;;;;;7.47;3.85;;;18.20;54.60;;;;;;6214497;23;20012;-85
2021/03/29 08:54:54;;;;;;;8.07;3.67;;;18.20;54.70;;;;;;6188113;23;20396;-82
2021/03/29 08:57:26;;;;;;;10.73;3.78;;;18.20;54.80;;;;;;6214622;23;20004;-84
2021/03/29 08:59:56;;;;;;;7.18;3.40;;;18.20;54.80;;;;;;6214189;23;20441;-82
2021/03/29 09:02:23;;;;;;;8.07;3.50;;;18.10;54.70;;;;;;6214188;23;19996;-77
2021/03/29 09:04:57;;;;;;;8.60;3.35;;;18.10;54.70;;;;;;6214095;23;20058;-80
2021/03/29 09:07:45;;;;;;;6.20;2.83;;;18.10;54.70;;;;;;6214522;23;20028;-83
2021/03/29 09:10:33;;;;;;;5.07;2.50;;;18.10;54.70;;;;;;6214276;23;20024;-87
2021/03/29 09:13:10;;;;;;;5.60;2.95;;;18.10;54.70;;;;;;6213846;23;20017;-80
2021/03/29 09:15:38;;;;;;;7.45;2.83;;;18.10;54.80;;;;;;6213589;23;20011;-80
2021/03/29 09:18:11;;;;;;;5.85;3.10;;;18.10;54.80;;;;;;6187133;23;20000;-80
2021/03/29 09:20:48;;;;;;;6.05;2.67;;;18.10;54.80;;;;;;6213821;23;20000;-81
2021/03/29 09:23:15;;;;;;;6.85;2.70;;;18.10;54.80;;;;;;6213876;23;20028;-82
2021/03/29 09:25:43;;;;;;;5.90;2.78;;;18.10;54.80;;;;;;6213785;23;20075;-84
2021/03/29 09:28:19;;;;;;;6.20;2.53;;;18.10;54.70;;;;;;6214540;23;20467;-87
2021/03/29 09:30:52;;;;;;;6.00;2.40;;;18.10;54.80;;;;;;6214474;23;20436;-85
2021/03/29 09:33:19;;;;;;;4.70;2.17;;;18.10;54.80;;;;;;6214140;23;20017;-87
2021/03/29 09:35:45;;;;;;;5.70;2.22;;;18.10;54.70;;;;;;6213658;23;20334;-88
2021/03/29 09:38:12;;;;;;;5.53;2.42;;;18.10;54.80;;;;;;6213834;23;20012;-87
2021/03/29 09:40:38;;;;;;;6.72;2.72;;;18.10;54.80;;;;;;6214307;23;20004;-85
2021/03/29 09:43:05;;;;;;;8.57;2.30;;;18.10;54.70;;;;;;6213960;23;20363;-87
2021/03/29 09:45:34;;;;;;;4.45;2.05;;;18.10;54.60;;;;;;6213926;23;20075;-83
2021/03/29 09:48:10;;;;;;;6.20;2.72;;;18.10;54.60;;;;;;6213537;23;20005;-86
2021/03/29 09:50:37;;;;;;;6.68;2.22;;;18.10;54.60;;;;;;6213638;23;20000;-87
2021/03/29 09:53:18;;;;;;;5.57;2.15;;;18.10;54.60;;;;;;6213525;23;20019;-87
2021/03/29 09:55:45;;;;;;;7.53;1.98;;;18.10;54.60;;;;;;6213888;23;20055;-87
2021/03/29 09:58:18;;;;;;;4.55;2.15;;;18.10;54.70;;;;;;6213378;23;20005;-86
2021/03/29 10:00:44;;;;;;;4.20;2.10;;;18.10;54.70;;;;;;6213514;23;20430;-84
2021/03/29 10:03:16;;;;;;;5.93;2.58;;;18.10;54.70;;;;;;6212863;23;20015;-75
2021/03/29 10:05:42;;;;;;;3.80;1.70;;;18.10;54.70;;;;;;6213508;23;20079;-75
2021/03/29 10:08:07;;;;;;;5.38;2.20;;;18.10;54.80;;;;;;6208613;23;20401;-75
2021/03/29 10:10:33;;;;;;;7.32;2.20;;;18.10;54.90;;;;;;6206664;23;20067;-75
2021/03/29 10:13:10;;;;;;;5.20;2.10;;;18.20;54.90;;;;;;6211801;23;20008;-75
2021/03/29 10:15:37;;;;;;;6.13;2.05;;;18.20;54.80;;;;;;6212192;23;20075;-74
2021/03/29 10:18:15;;;;;;;4.85;2.45;;;18.20;54.80;;;;;;6210926;23;20441;-75
2021/03/29 10:20:45;;;;;;;4.97;2.08;;;18.20;54.80;;;;;;6211991;23;20421;-74
2021/03/29 10:23:28;;;;;;;6.32;2.03;;;18.20;54.70;;;;;;6212454;23;20009;-76
2021/03/29 10:26:15;;;;;;;4.82;2.00;;;18.20;54.70;;;;;;6212737;23;20079;-74
2021/03/29 10:28:54;;;;;;;12.05;1.75;;;18.20;54.70;;;;;;6212700;23;20009;-75
2021/03/29 10:31:20;;;;;;;11.02;2.28;;;18.20;54.80;;;;;;6213712;23;20393;-74
2021/03/29 10:33:46;;;;;;;8.60;2.10;;;18.20;54.80;;;;;;6214197;23;20075;-74
2021/03/29 10:36:20;;;;;;;6.82;1.92;;;18.30;54.80;;;;;;6214127;23;20035;-74
2021/03/29 10:38:46;;;;;;;4.95;1.70;;;18.30;54.80;;;;;;6213658;23;20349;-75
2021/03/29 10:41:12;;;;;;;7.40;2.15;;;18.30;54.70;;;;;;6214084;23;20007;-74
2021/03/29 10:43:38;;;;;;;3.00;1.40;;;18.30;54.70;;;;;;6214124;23;20005;-75
2021/03/29 10:46:04;;;;;;;8.52;2.00;;;18.30;54.70;;;;;;6213882;23;20007;-75
2021/03/29 10:48:31;;;;;;;9.73;1.88;;;18.30;54.70;;;;;;6213253;23;20390;-75
2021/03/29 10:50:59;;;;;;;5.78;2.15;;;18.30;54.60;;;;;;6187383;23;20032;-74
2021/03/29 10:53:24;;;;;;;4.97;1.65;;;18.40;54.60;;;;;;6214231;23;20012;-74
2021/03/29 10:55:50;;;;;;;6.60;1.98;;;18.50;54.40;;;;;;6214049;23;20341;-75
2021/03/29 10:58:15;;;;;;;3.83;1.55;;;18.60;54.40;;;;;;6187353;23;20004;-72
2021/03/29 11:00:41;;;;;;;5.43;1.95;;;18.70;54.40;;;;;;6213367;23;20019;-75
2021/03/29 11:03:07;;;;;;;6.40;2.15;;;18.70;54.20;;;;;;6214425;23;20016;-83
2021/03/29 11:05:32;;;;;;;6.68;1.70;;;18.80;54.30;;;;;;6187876;23;20353;-86
2021/03/29 11:07:58;;;;;;;4.97;1.98;;;19.00;54.30;;;;;;6214235;23;20004;-83
2021/03/29 11:10:24;;;;;;;4.43;1.70;;;19.10;54.20;;;;;;6214453;23;20000;-82
2021/03/29 11:12:49;;;;;;;4.78;1.80;;;19.20;54.20;;;;;;6214933;23;20063;-85
2021/03/29 11:15:15;;;;;;;4.78;1.30;;;19.30;54.20;;;;;;6215121;23;20032;-87
2021/03/29 11:17:41;;;;;;;5.47;1.45;;;19.40;54.20;;;;;;6214460;23;20001;-87
2021/03/29 11:20:08;;;;;;;5.00;2.00;;;19.50;54.10;;;;;;6214385;23;20008;-79
2021/03/29 11:22:33;;;;;;;8.27;1.67;;;19.60;53.90;;;;;;6213499;23;20008;-73
2021/03/29 11:24:59;;;;;;;5.75;1.52;;;19.70;55.10;;;;;;6213504;23;20008;-75
2021/03/29 11:27:25;;;;;;;5.93;1.77;;;19.80;55.00;;;;;;6213683;23;20436;-75
2021/03/29 11:29:51;;;;;;;5.78;1.77;;;19.90;55.00;;;;;;6213621;23;20001;-74
2021/03/29 11:32:17;;;;;;;5.53;1.70;;;20.00;54.70;;;;;;6213608;23;20418;-75
2021/03/29 11:34:43;;;;;;;5.50;1.70;;;20.10;54.70;;;;;;6213861;23;20028;-74
2021/03/29 11:37:09;;;;;;;7.45;2.00;;;20.10;54.40;;;;;;6213352;23;20353;-75
2021/03/29 11:39:35;;;;;;;3.97;1.73;;;20.20;54.50;;;;;;6213537;23;20374;-74
2021/03/29 11:42:00;;;;;;;6.82;1.73;;;20.30;54.10;;;;;;6186245;23;20082;-74
2021/03/29 11:44:26;;;;;;;6.32;1.90;;;20.40;54.20;;;;;;6186746;23;20354;-75
2021/03/29 11:46:52;;;;;;;4.10;1.63;;;20.40;54.00;;;;;;6186126;23;20009;-73
2021/03/29 11:49:18;;;;;;;5.50;2.10;;;20.60;53.50;;;;;;6212151;23;20004;-75
2021/03/29 11:51:44;;;;;;;5.28;2.30;;;20.70;53.50;;;;;;6212907;23;20077;-75
2021/03/29 11:54:10;;;;;;;6.13;2.08;;;20.70;53.60;;;;;;6212912;23;19997;-75
2021/03/29 11:56:37;;;;;;;11.15;2.15;;;20.70;53.70;;;;;;6213122;23;20013;-75
2021/03/29 11:59:02;;;;;;;6.35;2.10;;;20.80;53.50;;;;;;6212510;23;20450;-75
2021/03/29 12:04:05;;;;;;;7.10;2.15;;;20.90;53.10;;;;;;6213657;23;20004;-75
2021/03/29 12:09:24;;;;;;;8.57;2.57;;;21.00;52.80;;;;;;6212951;23;20087;-75
2021/03/29 12:12:01;;;;;;;6.90;1.85;;;21.10;52.30;;;;;;6213202;23;20008;-74
2021/03/29 12:14:29;;;;;;;6.68;2.35;;;21.20;52.50;;;;;;6212919;23;20001;-76
2021/03/29 12:16:56;;;;;;;4.82;1.30;;;21.30;52.10;;;;;;6212032;23;20032;-76
2021/03/29 12:19:22;;;;;;;7.00;2.28;;;21.30;52.10;;;;;;6184502;23;20008;-75
2021/03/29 12:21:50;;;;;;;4.15;1.70;;;21.30;52.30;;;;;;6213135;23;20059;-74
2021/03/29 12:24:21;;;;;;;5.20;1.90;;;21.40;52.40;;;;;;6213778;23;20001;-76
2021/03/29 12:26:48;;;;;;;4.32;1.65;;;21.40;52.50;;;;;;6213649;23;20004;-75
2021/03/29 12:29:17;;;;;;;5.40;1.98;;;21.50;52.40;;;;;;6213950;23;20000;-76
2021/03/29 12:31:45;;;;;;;4.60;1.80;;;21.50;52.30;;;;;;6213687;23;20104;-76
2021/03/29 12:34:12;;;;;;;5.65;1.60;;;21.60;52.20;;;;;;6213595;23;20005;-75
2021/03/29 12:36:49;;;;;;;6.47;1.80;;;21.60;52.00;;;;;;6213350;23;20019;-75
2021/03/29 12:39:25;;;;;;;3.75;1.60;;;21.60;51.80;;;;;;6213524;23;20001;-75
2021/03/29 12:41:56;;;;;;;6.25;1.50;;;21.70;52.30;;;;;;6213519;23;20008;-74
2021/03/29 12:44:22;;;;;;;4.97;1.67;;;21.70;51.50;;;;;;6213776;23;20366;-76
2021/03/29 12:46:52;;;;;;;5.95;1.60;;;21.70;51.40;;;;;;6214079;23;20019;-76
2021/03/29 12:49:20;;;;;;;5.30;1.58;;;21.80;51.30;;;;;;6213449;23;20429;-76
2021/03/29 12:51:53;;;;;;;4.57;1.75;;;21.90;51.30;;;;;;6212966;23;20413;-76
2021/03/29 12:54:24;;;;;;;7.63;2.38;;;21.90;50.90;;;;;;6213706;23;20344;-74
2021/03/29 12:56:49;;;;;;;4.35;1.63;;;22.00;50.70;;;;;;6213837;23;20011;-74
2021/03/29 12:59:17;;;;;;;3.90;1.75;;;22.00;50.60;;;;;;6213828;23;20008;-75
2021/03/29 13:01:43;;;;;;;5.88;1.90;;;22.10;50.40;;;;;;6213679;23;20001;-73
2021/03/29 13:04:51;;;;;;;7.15;1.75;;;22.10;50.30;;;;;;6213495;23;20011;-75
2021/03/29 13:07:13;;;;;;;5.22;1.80;;;22.20;50.00;;;;;;6201031;23;20001;-76
2021/03/29 13:09:56;;;;;;;4.55;1.77;;;22.20;49.90;;;;;;6213900;23;20441;-75